CU-0019 weather

Altagracia Airport
Santiago de Cuba, Cuba

Public forecast

Using degrees Celsius for public forecast. Weather courtesy of forecast.io.

Closest aviation weather report (METAR) to Altagracia Airport

Closest report is Frank Pais International Airport, 25.8 nm (47.7 km) NNW. Retrieved 2019/12/10 00:50 UTC (60 minutes ago):

MUHG 100050Z 06011KT 9000 FEW020 25/22 Q1017

Closest aviation forecast (TAF) to Altagracia Airport

Closest forecast is Frank Pais International Airport, 25.8 nm (47.7 km) NNW. Retrieved 2019-12-10 00:03 UTC (2 hours ago):

TAF MUHG 092300Z 1000/1024 06009KT 9000 FEW020 BECMG 1002/1004 VRB03KT BECMG 1015/1017 09012KT SCT020